createdAt,value
2022-11-26T00:01:15.472Z,16.20
2022-11-26T00:03:46.562Z,16.40
2022-11-26T00:06:25.118Z,17.43
2022-11-26T00:08:53.613Z,17.43
2022-11-26T00:11:22.070Z,19.60
2022-11-26T00:13:50.481Z,21.43
2022-11-26T00:16:19.137Z,20.17
2022-11-26T00:18:48.891Z,16.77
2022-11-26T00:21:22.745Z,19.43
2022-11-26T00:23:51.535Z,17.47
2022-11-26T00:26:23.709Z,16.27
2022-11-26T00:28:54.854Z,13.40
2022-11-26T00:31:24.212Z,17.13
2022-11-26T00:33:53.989Z,18.00
2022-11-26T00:36:26.001Z,16.47
2022-11-26T00:38:57.615Z,15.20
2022-11-26T00:41:30.568Z,15.13
2022-11-26T00:43:59.948Z,13.93
2022-11-26T00:46:28.390Z,15.40
2022-11-26T00:48:58.075Z,13.93
2022-11-26T00:51:28.727Z,13.10
2022-11-26T00:54:01.050Z,19.33
2022-11-26T00:56:35.102Z,13.20
2022-11-26T00:59:06.756Z,12.87
2022-11-26T01:01:35.053Z,13.87
2022-11-26T01:04:05.004Z,14.50
2022-11-26T01:06:35.864Z,17.53
2022-11-26T01:09:06.395Z,14.67
2022-11-26T01:11:34.709Z,13.67
2022-11-26T01:14:03.475Z,18.23
2022-11-26T01:16:36.462Z,17.77
2022-11-26T01:19:07.569Z,16.13
2022-11-26T01:21:35.941Z,18.60
2022-11-26T01:24:05.459Z,15.93
2022-11-26T01:26:36.086Z,14.97
2022-11-26T01:29:04.792Z,17.93
2022-11-26T01:31:33.246Z,17.67
2022-11-26T01:34:01.551Z,15.23
2022-11-26T01:36:34.163Z,16.63
2022-11-26T01:39:04.696Z,15.27
2022-11-26T01:41:45.154Z,13.07
2022-11-26T01:44:19.477Z,17.63
2022-11-26T01:46:48.451Z,15.60
2022-11-26T01:49:19.448Z,20.07
2022-11-26T01:51:53.596Z,14.60
2022-11-26T01:54:23.532Z,16.50
2022-11-26T01:56:57.255Z,19.20
2022-11-26T01:59:30.691Z,16.37
2022-11-26T02:02:00.294Z,17.43
2022-11-26T02:04:32.437Z,18.90
2022-11-26T02:07:02.289Z,12.80
2022-11-26T02:09:31.419Z,19.47
2022-11-26T02:12:00.023Z,13.37
2022-11-26T02:14:32.496Z,16.47
2022-11-26T02:17:12.869Z,15.73
2022-11-26T02:20:19.670Z,17.13
2022-11-26T02:23:17.113Z,18.47
2022-11-26T02:26:02.253Z,19.33
2022-11-26T02:28:53.530Z,19.30
2022-11-26T02:31:30.857Z,18.33
2022-11-26T02:34:06.863Z,17.83
2022-11-26T02:36:41.710Z,18.97
2022-11-26T02:39:14.742Z,20.10
2022-11-26T02:41:44.842Z,19.07
2022-11-26T02:44:14.526Z,18.20
2022-11-26T02:46:46.526Z,19.53
2022-11-26T02:49:20.429Z,18.50
2022-11-26T02:51:52.384Z,17.60
2022-11-26T02:54:23.286Z,19.70
2022-11-26T02:56:52.503Z,14.83
2022-11-26T02:59:22.273Z,17.60
2022-11-26T03:01:57.214Z,16.73
2022-11-26T03:04:30.896Z,19.27
2022-11-26T03:07:02.917Z,19.17
2022-11-26T03:09:41.272Z,15.17
2022-11-26T03:12:10.010Z,17.27
2022-11-26T03:14:38.641Z,18.67
2022-11-26T03:17:09.665Z,20.77
2022-11-26T03:19:38.021Z,16.57
2022-11-26T03:22:06.792Z,17.97
2022-11-26T03:24:35.303Z,18.90
2022-11-26T03:27:03.679Z,16.13
2022-11-26T03:29:32.083Z,19.20
2022-11-26T03:32:01.053Z,17.43
2022-11-26T03:34:30.746Z,18.80
2022-11-26T03:36:59.321Z,16.70
2022-11-26T03:39:27.702Z,15.43
2022-11-26T03:41:55.958Z,16.60
2022-11-26T03:44:24.141Z,19.77
2022-11-26T03:46:52.723Z,13.57
2022-11-26T03:49:22.182Z,17.27
2022-11-26T03:51:51.908Z,16.00
2022-11-26T03:54:20.229Z,15.07
2022-11-26T03:56:49.628Z,17.57
2022-11-26T03:59:18.358Z,15.73
2022-11-26T04:01:46.663Z,20.13
2022-11-26T04:04:15.004Z,16.97
2022-11-26T04:06:43.270Z,20.97
2022-11-26T04:09:13.109Z,17.63
2022-11-26T04:11:41.549Z,14.67
2022-11-26T04:14:09.791Z,13.83
2022-11-26T04:16:38.134Z,14.33
2022-11-26T04:19:06.516Z,14.13
2022-11-26T04:21:36.113Z,17.77
2022-11-26T04:24:04.576Z,16.10
2022-11-26T04:26:34.214Z,17.17
2022-11-26T04:29:02.434Z,18.47
2022-11-26T04:31:30.837Z,16.13
2022-11-26T04:33:59.248Z,18.83
2022-11-26T04:36:27.510Z,13.20
2022-11-26T04:38:55.817Z,16.40
2022-11-26T04:41:24.145Z,17.90
2022-11-26T04:43:53.769Z,14.17
2022-11-26T04:46:23.141Z,13.77
2022-11-26T04:48:51.532Z,14.77
2022-11-26T04:51:19.915Z,16.07
2022-11-26T04:53:48.358Z,17.80
2022-11-26T04:56:16.617Z,17.23
2022-11-26T04:58:44.863Z,14.60
2022-11-26T05:01:14.578Z,14.40
2022-11-26T05:03:44.070Z,17.20
2022-11-26T05:06:12.635Z,15.90
2022-11-26T05:08:40.896Z,14.63
2022-11-26T05:11:09.196Z,13.63
2022-11-26T05:13:37.557Z,14.30
2022-11-26T05:16:06.454Z,17.00
2022-11-26T05:18:36.455Z,15.87
2022-11-26T05:21:07.586Z,16.73
2022-11-26T05:23:35.858Z,18.13
2022-11-26T05:26:04.500Z,16.53
2022-11-26T05:28:32.768Z,19.10
2022-11-26T05:31:01.952Z,17.00
2022-11-26T05:33:30.484Z,16.63
2022-11-26T05:36:00.210Z,16.33
2022-11-26T05:38:28.968Z,16.37
2022-11-26T05:40:58.452Z,16.27
2022-11-26T05:43:26.963Z,14.67
2022-11-26T05:45:55.223Z,16.23
2022-11-26T05:48:23.498Z,17.03
2022-11-26T05:50:59.559Z,14.57
2022-11-26T05:53:28.176Z,16.37
2022-11-26T05:55:56.498Z,17.73
2022-11-26T05:58:24.753Z,18.27
2022-11-26T06:00:53.138Z,19.20
2022-11-26T06:03:21.499Z,16.40
2022-11-26T06:05:49.905Z,18.23
2022-11-26T06:08:19.547Z,23.30
2022-11-26T06:10:47.808Z,23.50
2022-11-26T06:13:16.434Z,19.03
2022-11-26T06:15:44.622Z,20.97
2022-11-26T06:18:12.910Z,24.30
2022-11-26T06:20:41.274Z,21.97
2022-11-26T06:23:09.782Z,22.70
2022-11-26T06:25:41.447Z,24.10
2022-11-26T06:28:09.834Z,29.43
2022-11-26T06:30:38.194Z,31.83
2022-11-26T06:33:06.682Z,24.33
2022-11-26T06:35:35.347Z,32.47
2022-11-26T06:38:03.624Z,26.90
2022-11-26T06:40:32.143Z,26.27
2022-11-26T06:43:02.415Z,26.23
2022-11-26T06:45:31.029Z,26.53
2022-11-26T06:47:59.305Z,24.60
2022-11-26T06:50:27.748Z,30.70
2022-11-26T06:52:56.265Z,29.40
2022-11-26T06:55:24.575Z,28.07
2022-11-26T06:57:53.162Z,27.57
2022-11-26T07:00:23.645Z,28.67
2022-11-26T07:02:51.960Z,25.90
2022-11-26T07:05:20.350Z,28.37
2022-11-26T07:07:48.792Z,26.13
2022-11-26T07:10:17.667Z,35.30
2022-11-26T07:12:46.140Z,33.20
2022-11-26T07:15:14.628Z,41.73
2022-11-26T07:17:44.313Z,33.07
2022-11-26T07:20:13.928Z,32.87
2022-11-26T07:22:42.209Z,30.70
2022-11-26T07:25:12.760Z,31.67
2022-11-26T07:27:42.114Z,36.43
2022-11-26T07:30:11.534Z,39.73
2022-11-26T07:32:40.057Z,30.40
2022-11-26T07:35:09.795Z,42.30
2022-11-26T07:37:38.012Z,34.43
2022-11-26T07:40:09.498Z,34.03
2022-11-26T07:42:37.938Z,34.27
2022-11-26T07:45:08.273Z,33.20
2022-11-26T07:47:36.515Z,26.00
2022-11-26T07:50:05.914Z,24.03
2022-11-26T07:52:35.931Z,25.93
2022-11-26T07:55:11.028Z,26.93
2022-11-26T07:57:40.647Z,19.03
2022-11-26T08:00:10.116Z,25.07
2022-11-26T08:02:42.712Z,24.30
2022-11-26T08:05:11.269Z,19.80
2022-11-26T08:07:40.914Z,20.67
2022-11-26T08:10:09.932Z,22.67
2022-11-26T08:12:38.293Z,17.37
2022-11-26T08:15:07.289Z,19.57
2022-11-26T08:17:35.602Z,52.53
2022-11-26T08:20:04.077Z,22.10
2022-11-26T08:22:32.482Z,17.40
2022-11-26T08:25:02.203Z,21.83
2022-11-26T08:27:33.107Z,21.87
2022-11-26T08:30:01.361Z,23.93
2022-11-26T08:32:29.731Z,18.13
2022-11-26T08:34:58.116Z,18.53
2022-11-26T08:37:26.383Z,13.63
2022-11-26T08:39:54.779Z,15.03
2022-11-26T08:42:24.439Z,23.43
2022-11-26T08:44:52.713Z,16.23
2022-11-26T08:47:20.956Z,14.80
2022-11-26T08:49:49.726Z,13.97
2022-11-26T08:52:17.952Z,15.53
2022-11-26T08:54:46.788Z,15.20
2022-11-26T08:57:15.349Z,13.93
2022-11-26T08:59:45.255Z,12.40
2022-11-26T09:02:18.406Z,13.93
2022-11-26T09:04:47.403Z,13.60
2022-11-26T09:07:16.018Z,12.37
2022-11-26T09:09:45.066Z,22.43
2022-11-26T09:12:13.715Z,20.40
2022-11-26T09:14:42.639Z,17.97
2022-11-26T09:17:14.135Z,15.87
2022-11-26T09:19:42.413Z,13.80
2022-11-26T09:22:10.754Z,13.17
2022-11-26T09:24:39.462Z,11.00
2022-11-26T09:27:08.436Z,11.70
2022-11-26T09:29:36.875Z,12.13
2022-11-26T09:32:23.647Z,15.47
2022-11-26T09:34:55.398Z,14.83
2022-11-26T09:37:23.770Z,18.53
2022-11-26T09:39:54.303Z,19.47
2022-11-26T09:42:33.667Z,15.27
2022-11-26T09:45:11.673Z,30.90
2022-11-26T09:47:42.124Z,14.17
2022-11-26T09:50:24.572Z,11.97
2022-11-26T09:52:56.797Z,19.43
2022-11-26T09:55:27.884Z,13.10
2022-11-26T09:58:05.298Z,13.17
2022-11-26T10:00:39.203Z,14.77
2022-11-26T10:03:15.210Z,12.97
2022-11-26T10:05:50.519Z,12.90
2022-11-26T10:08:45.866Z,15.47
2022-11-26T10:11:23.167Z,13.93
2022-11-26T10:13:59.962Z,13.30
2022-11-26T10:16:34.551Z,12.93
2022-11-26T10:19:08.643Z,11.80
2022-11-26T10:24:32.985Z,13.77
2022-11-26T10:27:05.927Z,12.33
2022-11-26T10:29:39.179Z,13.63
2022-11-26T10:32:14.834Z,14.20
2022-11-26T10:34:50.647Z,13.10
2022-11-26T10:37:21.572Z,12.67
2022-11-26T10:39:55.234Z,12.93
2022-11-26T10:42:27.010Z,13.40
2022-11-26T10:44:55.541Z,13.20
2022-11-26T10:47:27.971Z,13.20
2022-11-26T10:50:32.186Z,12.03
2022-11-26T10:53:07.424Z,11.70
2022-11-26T10:55:40.119Z,12.37
2022-11-26T10:58:15.917Z,10.40
2022-11-26T11:00:55.417Z,10.10
2022-11-26T11:03:51.806Z,15.07
2022-11-26T11:06:36.695Z,11.27
2022-11-26T11:09:25.817Z,13.03
2022-11-26T11:12:20.956Z,9.13
2022-11-26T11:14:50.555Z,10.57
2022-11-26T11:17:30.369Z,9.03
2022-11-26T11:20:00.381Z,9.73
2022-11-26T11:22:29.152Z,9.35
2022-11-26T11:25:00.894Z,10.75
2022-11-26T11:27:43.839Z,8.15
2022-11-26T11:30:26.471Z,8.75
2022-11-26T11:32:57.255Z,8.85
2022-11-26T11:35:27.331Z,8.63
2022-11-26T11:38:00.747Z,6.93
2022-11-26T11:40:33.325Z,9.40
2022-11-26T11:43:04.925Z,8.55
2022-11-26T11:45:36.149Z,7.00
2022-11-26T11:48:17.983Z,7.75
2022-11-26T11:50:54.762Z,7.82
2022-11-26T11:53:35.446Z,5.28
2022-11-26T11:56:20.044Z,7.68
2022-11-26T11:59:02.403Z,9.18
2022-11-26T12:01:48.188Z,7.20
2022-11-26T12:04:25.881Z,7.35
2022-11-26T12:07:15.702Z,9.45
2022-11-26T12:09:48.439Z,5.88
2022-11-26T12:12:26.679Z,10.60
2022-11-26T12:15:00.878Z,8.43
2022-11-26T12:17:35.009Z,11.35
2022-11-26T12:20:12.172Z,9.63
2022-11-26T12:22:45.601Z,7.03
2022-11-26T12:25:24.757Z,10.27
2022-11-26T12:28:00.219Z,7.45
2022-11-26T12:30:36.580Z,7.35
2022-11-26T12:33:10.681Z,7.55
2022-11-26T12:35:44.254Z,7.35
2022-11-26T12:38:18.611Z,8.80
2022-11-26T12:40:50.662Z,7.40
2022-11-26T12:43:26.755Z,9.63
2022-11-26T12:46:00.309Z,10.35
2022-11-26T12:48:40.046Z,7.18
2022-11-26T12:51:17.859Z,9.05
2022-11-26T12:53:54.944Z,6.95
2022-11-26T12:56:27.433Z,9.43
2022-11-26T12:59:04.114Z,7.55
2022-11-26T13:01:33.599Z,7.25
2022-11-26T13:04:35.537Z,10.13
2022-11-26T13:07:05.357Z,7.43
2022-11-26T13:09:54.406Z,6.00
2022-11-26T13:12:31.464Z,7.25
2022-11-26T13:15:09.511Z,7.47
2022-11-26T13:17:43.193Z,8.07
2022-11-26T13:20:51.897Z,8.57
2022-11-26T13:23:41.081Z,8.10
2022-11-26T13:26:27.389Z,7.22
2022-11-26T13:29:33.430Z,8.38
2022-11-26T13:32:26.441Z,7.85
2022-11-26T13:35:11.030Z,19.13
2022-11-26T13:37:59.438Z,9.25
2022-11-26T13:40:58.681Z,9.45
2022-11-26T13:43:59.754Z,8.35
2022-11-26T13:46:30.010Z,8.32
2022-11-26T13:49:04.278Z,6.95
2022-11-26T13:51:38.800Z,9.57
2022-11-26T13:54:12.861Z,11.10
2022-11-26T13:56:42.935Z,11.10
2022-11-26T13:59:17.585Z,15.52
2022-11-26T14:01:47.335Z,13.10
2022-11-26T14:04:53.115Z,13.73
2022-11-26T14:07:21.935Z,12.10
2022-11-26T14:09:53.898Z,10.10
2022-11-26T14:12:23.297Z,8.57
2022-11-26T14:14:52.325Z,9.63
2022-11-26T14:17:24.698Z,10.63
2022-11-26T14:20:06.350Z,9.83
2022-11-26T14:22:36.638Z,10.90
2022-11-26T14:25:07.669Z,7.27
2022-11-26T14:27:37.962Z,7.90
2022-11-26T14:30:20.464Z,11.03
2022-11-26T14:32:59.304Z,11.40
2022-11-26T14:35:34.313Z,11.60
2022-11-26T14:38:04.992Z,10.17
2022-11-26T14:40:35.311Z,8.77
2022-11-26T14:43:19.490Z,11.20
2022-11-26T14:45:49.923Z,9.63
2022-11-26T14:48:25.642Z,9.95
2022-11-26T14:50:58.245Z,8.52
2022-11-26T14:53:31.460Z,9.45
2022-11-26T14:56:00.556Z,11.38
2022-11-26T14:58:35.502Z,9.93
2022-11-26T15:01:18.647Z,11.55
2022-11-26T15:03:59.156Z,11.80
2022-11-26T15:06:35.007Z,11.17
2022-11-26T15:09:12.123Z,11.77
2022-11-26T15:11:44.642Z,14.60
2022-11-26T15:14:21.954Z,15.10
2022-11-26T15:16:56.918Z,15.10
2022-11-26T15:19:25.985Z,15.37
2022-11-26T15:21:57.441Z,17.23
2022-11-26T15:24:26.295Z,64.17
2022-11-26T15:26:54.660Z,40.60
2022-11-26T15:29:35.404Z,25.03
2022-11-26T15:32:05.522Z,22.93
2022-11-26T15:34:37.910Z,29.30
2022-11-26T15:37:08.025Z,28.53
2022-11-26T15:39:36.409Z,24.17
2022-11-26T15:42:09.132Z,22.03
2022-11-26T15:44:42.532Z,24.37
2022-11-26T15:47:20.117Z,23.73
2022-11-26T15:49:54.879Z,23.97
2022-11-26T15:52:30.649Z,22.67
2022-11-26T15:55:18.378Z,25.07
2022-11-26T15:57:52.646Z,26.27
2022-11-26T16:03:42.554Z,24.50
2022-11-26T16:06:31.268Z,27.10
2022-11-26T16:09:05.326Z,33.00
2022-11-26T16:11:37.070Z,32.50
2022-11-26T16:14:30.377Z,33.60
2022-11-26T16:17:05.071Z,32.63
2022-11-26T16:19:37.366Z,32.43
2022-11-26T16:22:07.570Z,39.90
2022-11-26T16:24:40.866Z,32.87
2022-11-26T16:27:28.491Z,42.70
2022-11-26T16:29:57.390Z,38.27
2022-11-26T16:32:26.029Z,38.40
2022-11-26T16:34:54.436Z,38.63
2022-11-26T16:37:25.337Z,42.13
2022-11-26T16:40:02.566Z,38.17
2022-11-26T16:42:32.576Z,30.27
2022-11-26T16:45:04.140Z,37.00
2022-11-26T16:47:36.049Z,50.90
2022-11-26T16:50:05.261Z,47.40
2022-11-26T16:52:36.413Z,53.60
2022-11-26T16:55:06.914Z,59.27
2022-11-26T16:57:35.553Z,62.97
2022-11-26T17:00:07.100Z,60.40
2022-11-26T17:02:35.719Z,57.73
2022-11-26T17:05:04.898Z,234.17
2022-11-26T17:07:40.419Z,208.57
2022-11-26T17:10:16.594Z,162.63
2022-11-26T17:12:45.725Z,172.60
2022-11-26T17:15:15.060Z,108.63
2022-11-26T17:17:44.158Z,143.53
2022-11-26T17:20:17.485Z,182.57
2022-11-26T17:22:46.289Z,138.87
2022-11-26T17:25:17.032Z,187.93
2022-11-26T17:27:46.596Z,194.87
2022-11-26T17:30:17.742Z,136.70
2022-11-26T17:32:47.228Z,120.20
2022-11-26T17:35:16.453Z,110.97
2022-11-26T17:37:45.573Z,163.23
2022-11-26T17:40:20.284Z,194.47
2022-11-26T17:42:49.810Z,167.17
2022-11-26T17:45:19.545Z,463.73
2022-11-26T17:47:48.552Z,242.20
2022-11-26T17:50:20.924Z,155.17
2022-11-26T17:52:49.878Z,269.03
2022-11-26T17:55:20.315Z,171.20
2022-11-26T17:57:48.904Z,190.13
2022-11-26T18:00:21.431Z,281.77
2022-11-26T18:02:50.577Z,201.17
2022-11-26T18:05:19.318Z,222.33
2022-11-26T18:07:49.900Z,186.33
2022-11-26T18:10:44.203Z,244.00
2022-11-26T18:13:12.864Z,204.93
2022-11-26T18:15:41.686Z,167.70
2022-11-26T18:18:10.107Z,221.77
2022-11-26T18:21:04.569Z,292.80
2022-11-26T18:23:35.070Z,229.10
2022-11-26T18:26:18.065Z,291.83
2022-11-26T18:28:49.377Z,235.93
2022-11-26T18:31:23.464Z,227.57
2022-11-26T18:34:00.953Z,173.23
2022-11-26T18:36:36.724Z,268.80
2022-11-26T18:39:05.405Z,435.53
2022-11-26T18:41:35.559Z,265.07
2022-11-26T18:44:04.430Z,255.43
2022-11-26T18:46:33.589Z,373.10
2022-11-26T18:49:02.455Z,225.87
2022-11-26T18:51:30.949Z,272.87
2022-11-26T18:53:59.461Z,189.07
2022-11-26T18:56:27.784Z,216.27
2022-11-26T18:58:57.840Z,275.87
2022-11-26T19:01:28.536Z,219.67
2022-11-26T19:04:00.805Z,225.73
2022-11-26T19:06:31.910Z,307.93
2022-11-26T19:09:02.288Z,365.97
2022-11-26T19:11:30.639Z,209.17
2022-11-26T19:14:01.606Z,263.10
2022-11-26T19:16:30.078Z,363.90
2022-11-26T19:19:01.628Z,236.83
2022-11-26T19:21:32.851Z,261.93
2022-11-26T19:24:02.959Z,337.40
2022-11-26T19:26:31.967Z,200.23
2022-11-26T19:29:04.999Z,132.93
2022-11-26T19:31:36.037Z,112.40
2022-11-26T19:34:07.554Z,140.83
2022-11-26T19:36:36.523Z,127.93
2022-11-26T19:39:06.829Z,99.23
2022-11-26T19:41:35.367Z,107.87
2022-11-26T19:44:07.116Z,142.33
2022-11-26T19:46:39.307Z,145.87
2022-11-26T19:49:08.304Z,311.53
2022-11-26T19:51:36.741Z,243.97
2022-11-26T19:54:05.428Z,190.17
2022-11-26T19:56:34.776Z,119.53
2022-11-26T19:59:07.000Z,283.10
2022-11-26T20:01:36.217Z,200.70
2022-11-26T20:04:06.913Z,137.83
2022-11-26T20:06:36.470Z,133.00
2022-11-26T20:09:06.389Z,113.93
2022-11-26T20:11:37.758Z,162.87
2022-11-26T20:14:10.605Z,128.10
2022-11-26T20:16:42.546Z,525.70
2022-11-26T20:19:12.744Z,244.00
2022-11-26T20:21:41.442Z,140.30
2022-11-26T20:24:14.246Z,248.30
2022-11-26T20:26:45.405Z,294.87
2022-11-26T20:29:18.374Z,178.20
2022-11-26T20:31:51.490Z,215.40
2022-11-26T20:34:24.018Z,270.63
2022-11-26T20:36:53.807Z,136.70
2022-11-26T20:39:29.555Z,161.37
2022-11-26T20:41:58.226Z,117.73
2022-11-26T20:44:28.634Z,85.50
2022-11-26T20:46:57.956Z,190.30
2022-11-26T20:49:33.586Z,211.60
2022-11-26T20:52:04.216Z,148.67
2022-11-26T20:55:03.402Z,116.10
2022-11-26T20:57:37.925Z,87.30
2022-11-26T21:00:09.482Z,104.80
2022-11-26T21:02:41.975Z,80.30
2022-11-26T21:05:10.990Z,100.40
2022-11-26T21:07:39.761Z,88.13
2022-11-26T21:10:11.678Z,151.13
2022-11-26T21:12:40.405Z,241.13
2022-11-26T21:15:11.719Z,98.93
2022-11-26T21:17:40.609Z,133.20
2022-11-26T21:20:10.501Z,110.20
2022-11-26T21:22:42.639Z,128.73
2022-11-26T21:25:14.682Z,115.53
2022-11-26T21:27:43.238Z,151.23
2022-11-26T21:30:19.889Z,94.87
2022-11-26T21:32:48.454Z,90.00
2022-11-26T21:35:17.546Z,164.27
2022-11-26T21:37:49.511Z,86.47
2022-11-26T21:40:21.584Z,92.13
2022-11-26T21:42:50.366Z,98.00
2022-11-26T21:45:23.014Z,137.97
2022-11-26T21:47:52.016Z,130.97
2022-11-26T21:50:20.957Z,138.00
2022-11-26T21:52:49.667Z,172.27
2022-11-26T21:55:18.355Z,126.53
2022-11-26T21:57:46.839Z,96.63
2022-11-26T22:00:17.948Z,68.93
2022-11-26T22:02:47.972Z,85.53
2022-11-26T22:05:16.619Z,82.83
2022-11-26T22:07:45.320Z,123.60
2022-11-26T22:10:14.287Z,79.80
2022-11-26T22:12:42.632Z,85.03
2022-11-26T22:15:14.743Z,90.33
2022-11-26T22:17:43.323Z,80.23
2022-11-26T22:20:14.487Z,86.13
2022-11-26T22:22:43.020Z,92.23
2022-11-26T22:25:11.525Z,122.47
2022-11-26T22:27:40.039Z,79.33
2022-11-26T22:30:09.531Z,78.73
2022-11-26T22:32:38.061Z,66.60
2022-11-26T22:35:07.128Z,60.73
2022-11-26T22:37:37.051Z,62.57
2022-11-26T22:40:07.054Z,58.57
2022-11-26T22:42:35.591Z,61.90
2022-11-26T22:45:04.204Z,60.43
2022-11-26T22:47:32.757Z,59.17
2022-11-26T22:50:01.300Z,59.63
2022-11-26T22:52:30.082Z,54.60
2022-11-26T22:55:00.378Z,65.40
2022-11-26T22:57:28.735Z,79.90
2022-11-26T22:59:57.392Z,63.90
2022-11-26T23:02:27.280Z,62.07
2022-11-26T23:04:55.732Z,57.63
2022-11-26T23:07:30.548Z,51.20
2022-11-26T23:10:03.136Z,52.07
2022-11-26T23:12:31.599Z,56.30
2022-11-26T23:15:03.834Z,43.40
2022-11-26T23:17:32.665Z,42.57
2022-11-26T23:20:06.566Z,38.63
2022-11-26T23:22:38.417Z,36.33
2022-11-26T23:25:14.188Z,37.03
2022-11-26T23:27:42.922Z,32.80
2022-11-26T23:30:12.712Z,35.80
2022-11-26T23:32:47.428Z,33.17
2022-11-26T23:35:16.443Z,32.23
2022-11-26T23:37:45.194Z,36.03
2022-11-26T23:40:26.284Z,33.30
2022-11-26T23:43:07.225Z,28.93
2022-11-26T23:45:42.550Z,28.33
2022-11-26T23:48:21.015Z,28.73
2022-11-26T23:50:54.310Z,29.17
2022-11-26T23:53:33.035Z,23.63
2022-11-26T23:56:07.427Z,29.93
2022-11-26T23:58:36.346Z,28.37
